Flight Track Log - Related Links

Times and Time Zones

All times are in EDT time to prevent confusion due to time zone crossing. See the CSN3100 flight status page for this flight to view local times or setup timezone preferences in your user account.


Time Position Orientation Groundspeed Altitude Reporting Facility
EDT Latitude Longitude Course Direction KTS MPH feet Rate Location/Type
Thu 06:58:00 AM 39.9735 116.5590 190° South  Level Estimated
Thu 06:59:00 AM 39.8668 116.5335 190° South  Level Estimated
Thu 07:00:00 AM 39.7602 116.5080 190° South  Level Estimated
Thu 07:01:00 AM 39.6535 116.4827 190° South  Level Estimated
Thu 07:02:00 AM 39.5468 116.4575 190° South  Level Estimated
Thu 07:03:00 AM 39.4401 116.4323 190° South  Level Estimated
Thu 07:04:00 AM 39.3335 116.4072 190° South  Level Estimated
Thu 07:05:00 AM 39.2268 116.3821 190° South  Level Estimated
Thu 07:06:00 AM 39.1201 116.3572 190° South  Level Estimated
Thu 07:07:00 AM 39.0134 116.3323 190° South  Level Estimated
Thu 07:08:00 AM 38.9067 116.3075 190° South  Level Estimated
Thu 07:09:00 AM 38.8000 116.2827 190° South  Level Estimated
Thu 07:10:00 AM 38.6932 116.2581 190° South  Level Estimated
Thu 07:11:00 AM 38.5865 116.2335 190° South  Level Estimated
Thu 07:12:00 AM 38.4798 116.2090 190° South  Level Estimated
Thu 07:13:00 AM 38.3731 116.1845 190° South  Level Estimated
Thu 07:14:00 AM 38.2663 116.1602 190° South  Level Estimated
Thu 07:15:00 AM 38.1596 116.1359 190° South  Level Estimated
Thu 07:16:00 AM 38.0529 116.1116 190° South  Level Estimated
Thu 07:17:00 AM 37.9461 116.0875 190° South  Level Estimated
Thu 07:18:00 AM 37.8394 116.0634 190° South  Level Estimated
Thu 07:19:00 AM 37.7326 116.0394 190° South  Level Estimated
Thu 07:20:00 AM 37.6258 116.0154 190° South  Level Estimated
Thu 07:21:00 AM 37.5191 115.9916 190° South  Level Estimated
Thu 07:22:00 AM 37.4123 115.9678 190° South  Level Estimated
Thu 07:23:00 AM 37.3055 115.9440 190° South  Level Estimated
Thu 07:24:00 AM 37.1987 115.9203 190° South  Level Estimated
Thu 07:25:00 AM 37.0919 115.8967 190° South  Level Estimated
Thu 07:26:00 AM 36.9852 115.8732 190° South  Level Estimated
Thu 07:27:00 AM 36.8784 115.8497 190° South  Level Estimated
Thu 07:28:00 AM 36.7716 115.8263 190° South  Level Estimated
Thu 07:29:00 AM 36.6647 115.8030 190° South  Level Estimated
Thu 07:30:00 AM 36.5579 115.7797 190° South  Level Estimated
Thu 07:31:00 AM 36.4511 115.7565 190° South  Level Estimated
Thu 07:32:00 AM 36.3443 115.7333 190° South  Level Estimated
Thu 07:33:00 AM 36.2375 115.7102 190° South  Level Estimated
Thu 07:34:00 AM 36.1307 115.6872 190° South  Level Estimated
Thu 07:35:00 AM 36.0238 115.6643 190° South  Level Estimated
Thu 07:36:00 AM 35.9170 115.6414 190° South  Level Estimated
Thu 07:37:00 AM 35.8102 115.6185 190° South  Level Estimated
Thu 07:38:00 AM 35.7033 115.5957 190° South  Level Estimated
Thu 07:39:00 AM 35.5965 115.5730 190° South  Level Estimated
Thu 07:40:00 AM 35.4896 115.5504 190° South  Level Estimated
Thu 07:41:00 AM 35.3827 115.5278 190° South  Level Estimated
Thu 07:42:00 AM 35.2759 115.5052 190° South  Level Estimated
Thu 07:43:00 AM 35.1690 115.4828 190° South  Level Estimated
Thu 07:44:00 AM 35.0564 115.4591 190° South  Level Estimated
Thu 07:45:00 AM 34.9437 115.4356 190° South  Level Estimated
Thu 07:46:00 AM 34.8311 115.4121 190° South  Level Estimated
Thu 07:47:00 AM 34.7184 115.3886 190° South  Level Estimated
Thu 07:48:00 AM 34.6057 115.3653 190° South  Level Estimated
Thu 07:49:00 AM 34.4930 115.3420 190° South  Level Estimated
Thu 07:50:00 AM 34.3804 115.3187 190° South  Level Estimated
Thu 07:51:00 AM 34.2677 115.2955 190° South  Level Estimated
Thu 07:52:00 AM 34.1550 115.2724 190° South  Level Estimated
Thu 07:53:00 AM 34.0423 115.2494 190° South  Level Estimated
Thu 07:54:00 AM 33.9296 115.2264 190° South  Level Estimated
Thu 07:55:00 AM 33.8169 115.2034 190° South  Level Estimated
Thu 07:56:00 AM 33.7042 115.1806 190° South  Level Estimated
Thu 07:57:00 AM 33.5915 115.1578 190° South  Level Estimated
Thu 07:58:00 AM 33.4704 115.1333 190° South  Level Estimated
Thu 07:59:00 AM 33.3493 115.1089 190° South  Level Estimated
Thu 08:00:00 AM 33.2282 115.0846 190° South  Level Estimated
Thu 08:01:00 AM 33.1071 115.0604 190° South  Level Estimated
Thu 08:02:00 AM 32.9859 115.0362 190° South  Level Estimated
Thu 08:03:00 AM 32.8648 115.0121 189° South  Level Estimated
Thu 08:04:00 AM 32.7437 114.9880 189° South  Level Estimated
Thu 08:05:00 AM 32.6225 114.9641 189° South  Level Estimated
Thu 08:06:00 AM 32.5014 114.9401 189° South  Level Estimated
Thu 08:07:00 AM 32.3802 114.9163 189° South  Level Estimated
Thu 08:08:00 AM 32.2591 114.8925 189° South  Level Estimated
Thu 08:09:00 AM 32.1379 114.8688 189° South  Level Estimated
Thu 08:10:00 AM 32.0167 114.8451 189° South  Level Estimated
Thu 08:11:00 AM 31.8956 114.8215 189° South  Level Estimated
Thu 08:12:00 AM 31.7744 114.7980 189° South  Level Estimated
Thu 08:13:00 AM 31.6532 114.7745 189° South  Level Estimated
Thu 08:14:00 AM 31.5320 114.7511 189° South  Level Estimated
Thu 08:15:00 AM 31.4108 114.7277 189° South  Level Estimated
Thu 08:16:00 AM 31.2896 114.7044 189° South  Level Estimated
Thu 08:17:00 AM 31.1684 114.6812 189° South  Level Estimated
Thu 08:18:00 AM 31.0473 114.6580 189° South  Level Estimated
Thu 08:19:00 AM 30.9261 114.6349 189° South  Level Estimated
Thu 08:20:00 AM 30.8048 114.6118 189° South  Level Estimated
Thu 08:21:00 AM 30.6836 114.5889 189° South  Level Estimated
Thu 08:22:00 AM 30.5624 114.5659 189° South  Level Estimated
Thu 08:23:00 AM 30.4412 114.5430 189° South  Level Estimated
Thu 08:24:00 AM 30.3200 114.5202 189° South  Level Estimated
Thu 08:25:00 AM 30.1987 114.4974 189° South  Level Estimated
Thu 08:26:00 AM 30.0775 114.4747 189° South  Level Estimated
Thu 08:27:00 AM 29.9563 114.4520 189° South  Level Estimated
Thu 08:28:00 AM 29.8350 114.4295 189° South  Level Estimated
Thu 08:29:00 AM 29.7138 114.4069 189° South  Level Estimated
Thu 08:30:00 AM 29.5925 114.3844 189° South  Level Estimated
Thu 08:31:00 AM 29.4713 114.3620 189° South  Level Estimated
Thu 08:32:00 AM 29.3500 114.3396 189° South  Level Estimated
Thu 08:33:00 AM 29.2288 114.3172 189° South  Level Estimated
Thu 08:34:00 AM 29.1075 114.2950 189° South  Level Estimated
Thu 08:35:00 AM 28.9862 114.2727 189° South  Level Estimated
Thu 08:36:00 AM 28.8650 114.2506 189° South  Level Estimated
Thu 08:37:00 AM 28.7437 114.2284 189° South  Level Estimated
Thu 08:38:00 AM 28.6224 114.2064 189° South  Level Estimated
Thu 08:39:00 AM 28.5012 114.1843 189° South  Level Estimated
Thu 08:40:00 AM 28.3799 114.1624 189° South  Level Estimated
Thu 08:41:00 AM 28.2586 114.1404 189° South  Level Estimated
Thu 08:42:00 AM 28.1373 114.1186 189° South  Level Estimated
Thu 08:43:00 AM 28.0160 114.0967 189° South  Level Estimated
Thu 08:44:00 AM 27.8947 114.0750 189° South  Level Estimated
Thu 08:45:00 AM 27.7817 114.0547 189° South  Level Estimated
Thu 08:46:00 AM 27.6687 114.0345 189° South  Level Estimated
Thu 08:47:00 AM 27.5556 114.0144 189° South  Level Estimated
Thu 08:48:00 AM 27.4426 113.9943 189° South  Level Estimated
Thu 08:49:00 AM 27.3296 113.9742 189° South  Level Estimated
Thu 08:50:00 AM 27.2166 113.9541 189° South  Level Estimated
Thu 08:51:00 AM 27.1035 113.9342 189° South  Level Estimated
Thu 08:52:00 AM 26.9905 113.9142 189° South  Level Estimated
Thu 08:53:00 AM 26.8775 113.8943 189° South  Level Estimated
Thu 08:54:00 AM 26.7644 113.8744 189° South  Level Estimated
Thu 08:55:00 AM 26.6514 113.8546 189° South  Level Estimated
Thu 08:56:00 AM 26.5383 113.8348 189° South  Level Estimated
Thu 08:57:00 AM 26.4253 113.8150 189° South  Level Estimated
Thu 08:58:00 AM 26.3122 113.7953 189° South  Level Estimated
Thu 08:59:00 AM 26.1992 113.7756 189° South  Level Estimated
Thu 09:00:00 AM 26.0861 113.7560 189° South  Level Estimated
Thu 09:01:00 AM 25.9731 113.7364 189° South  Level Estimated
Thu 09:02:00 AM 25.8600 113.7168 189° South  Level Estimated
Thu 09:03:00 AM 25.7469 113.6973 189° South  Level Estimated
Thu 09:04:00 AM 25.6339 113.6778 189° South  Level Estimated
Thu 09:05:00 AM 25.5208 113.6583 189° South  Level Estimated
Thu 09:06:00 AM 25.4077 113.6389 189° South  Level Estimated
Thu 09:07:00 AM 25.2947 113.6196 189° South  Level Estimated
Thu 09:08:00 AM 25.1816 113.6002 189° South  Level Estimated
Thu 09:09:00 AM 25.0685 113.5809 189° South  Level Estimated
Thu 09:10:00 AM 24.9554 113.5616 189° South  Level Estimated
Thu 09:11:00 AM 24.8423 113.5424 189° South  Level Estimated
Thu 09:12:00 AM 24.7292 113.5232 189° South  Level Estimated
Thu 09:13:00 AM 24.6162 113.5040 189° South  Level Estimated
Thu 09:14:00 AM 24.5031 113.4849 189° South  Level Estimated
Thu 09:15:00 AM 24.3900 113.4658 189° South  Level Estimated
Thu 09:16:00 AM 24.2769 113.4467 189° South  Level Estimated
Thu 09:17:00 AM 24.1638 113.4277 189° South  Level Estimated
Thu 09:18:00 AM 24.0507 113.4087 189° South  Level Estimated
Thu 09:19:00 AM 23.9376 113.3897 189° South  Level Estimated
Thu 09:20:00 AM 23.8245 113.3708 189° South  Level Estimated
Thu 09:21:00 AM 23.7114 113.3519 189° South  Level Estimated
Thu 09:22:00 AM 23.5982 113.3330 189° South  Level Estimated
Thu 09:23:00 AM 23.4851 113.3142 189° South  Level Estimated
Thu 09:24:00 AM 23.3924 113.2988 189° South  Level Estimated
Thu 09:25:00 AM 23.3924 113.2988 North  Level Estimated
Thu 09:26:00 AM 23.3924 113.2988 North  Level Estimated
Thu 09:27:00 AM 23.3924 113.2988 North  Level Estimated
Thu 09:28:00 AM 23.3924 113.2988 North  Level Estimated
Thu 09:29:00 AM 23.3924 113.2988 North  Level Estimated
Thu 09:30:00 AM 23.3924 113.2988 North  Level Estimated
Thu 09:31:00 AM 23.3924 113.2988 North  Level Estimated
Thu 09:32:00 AM 23.3924 113.2988 North  Level Estimated
Thu 09:33:00 AM 23.3924 113.2988 North  Level Estimated
Thu 09:34:00 AM 23.3924 113.2988 North  Level Estimated
Thu 09:35:00 AM 23.3924 113.2988 North  Level Estimated
Thu 09:36:00 AM 23.3924 113.2988 North  Level Estimated
Thu 09:37:00 AM 23.3924 113.2988 North  Level Estimated
Thu 09:38:00 AM 23.3924 113.2988 North  Level Estimated
Thu 09:39:00 AM 23.3924 113.2988 North  Level Estimated
Thu 09:40:00 AM 23.3924 113.2988 North  Level Estimated
Thu 09:41:00 AM 23.3924 113.2988 North  Level Estimated
Thu 09:42:00 AM 23.3924 113.2988 North  Level Estimated
Thu 09:43:00 AM 23.3924 113.2988 North  Level Estimated
Thu 09:44:00 AM 23.3924 113.2988 North  Level Estimated
Thu 09:45:00 AM 23.3924 113.2988 North  Level Estimated
Thu 09:46:00 AM 23.3924 113.2988 North  Level Estimated
Thu 09:47:00 AM 23.3924 113.2988 North  Level Estimated
Thu 09:48:00 AM 23.3924 113.2988 North  Level Estimated
Thu 09:49:00 AM 23.3924 113.2988 North  Level Estimated
Thu 09:50:00 AM 23.3924 113.2988 North  Level Estimated
Thu 09:51:00 AM 23.3924 113.2988 North  Level Estimated
Thu 09:52:00 AM 23.3924 113.2988 North  Level Estimated
Thu 09:53:00 AM 23.3924 113.2988 North  Level Estimated
Thu 09:54:00 AM 23.3924 113.2988 North  Level Estimated
Thu 09:55:00 AM 23.3924 113.2988 North  Level Estimated
Thu 09:56:00 AM 23.3924 113.2988 North  Level Estimated
Thu 09:57:00 AM 23.3924 113.2988 North  Level Estimated
Thu 09:58:00 AM 23.3924 113.2988 North  Level Estimated
Thu 09:59:00 AM 23.3924 113.2988 North  Level Estimated
Thu 10:00:00 AM 23.3924 113.2988 North  Level Estimated
Thu 10:01:00 AM 23.3924 113.2988 North  Level Estimated
Thu 10:02:00 AM 23.3924 113.2988 North  Level Estimated
Thu 10:03:00 AM 23.3924 113.2988 North  Level Estimated
Thu 10:04:00 AM 23.3924 113.2988 North  Level Estimated
Thu 10:05:00 AM 23.3924 113.2988 North  Level Estimated
Thu 10:06:00 AM 23.3924 113.2988 North  Level Estimated
Thu 10:07:00 AM 23.3924 113.2988 North  Level Estimated
Thu 10:08:00 AM 23.3924 113.2988 North  Level Estimated
Thu 10:09:00 AM 23.3924 113.2988 North  Level Estimated
Thu 10:10:00 AM 23.3924 113.2988 North  Level Estimated
Thu 10:11:00 AM 23.3924 113.2988 North  Level Estimated
Thu 10:12:00 AM 23.3924 113.2988 North  Level Estimated
Thu 10:13:00 AM 23.3924 113.2988 North  Level Estimated
Thu 10:14:00 AM 23.3924 113.2988 North  Level Estimated
Thu 10:15:00 AM 23.3924 113.2988 North  Level Estimated
Thu 10:16:00 AM 23.3924 113.2988 North  Level Estimated
Thu 10:17:00 AM 23.3924 113.2988 North  Level Estimated
Thu 10:18:00 AM 23.3924 113.2988 North  Level Estimated
Thu 10:19:00 AM 23.3924 113.2988 North  Level Estimated
Thu 10:20:00 AM 23.3924 113.2988 North  Level Estimated
Thu 10:21:00 AM 23.3924 113.2988 North  Level Estimated
Thu 10:22:00 AM 23.3924 113.2988 North  Level Estimated
Thu 10:23:00 AM 23.3924 113.2988 North  Level Estimated
Thu 10:24:00 AM 23.3924 113.2988 North  Level Estimated
Thu 10:25:00 AM 23.3924 113.2988 North  Level Estimated
Thu 10:26:00 AM 23.3924 113.2988 North  Level Estimated

Login

Don't have an account? Register now (free) for customized features, flight alerts, and more!